Time;durP1;ratioP1;P1;durP2;ratioP2;P2;SDS_P1;SDS_P2;PMS_P1;PMS_P2;Temp;Humidity;BMP_temperature;BMP_pressure;BME280_temperature;BME280_humidity;BME280_pressure;Samples;Min_cycle;Max_cycle;Signal;HPM_P1;HPM_P2
2022/06/19 00:00:49;;;;;;;1999.90;999.90;;;15.60;99.90;;;;;;5115506;28;20044;-61
2022/06/19 00:03:24;;;;;;;1999.90;999.90;;;15.60;99.90;;;;;;5115634;28;20118;-61
2022/06/19 00:05:51;;;;;;;1999.90;999.90;;;15.60;99.90;;;;;;5116114;28;20044;-61
2022/06/19 00:08:17;;;;;;;1999.90;999.90;;;15.70;99.90;;;;;;5114992;28;20058;-61
2022/06/19 00:10:42;;;;;;;1999.90;999.90;;;15.60;99.90;;;;;;5115705;28;20397;-61
2022/06/19 00:13:08;;;;;;;1999.90;999.90;;;15.60;99.90;;;;;;5098154;28;20044;-61
2022/06/19 00:15:34;;;;;;;1999.90;999.90;;;15.50;99.90;;;;;;5094809;28;20052;-60
2022/06/19 00:18:00;;;;;;;1999.90;999.90;;;15.40;99.90;;;;;;5114829;28;20051;-61
2022/06/19 00:20:26;;;;;;;1999.90;999.90;;;15.30;99.90;;;;;;5097256;28;20398;-61
2022/06/19 00:22:52;;;;;;;1999.90;999.90;;;15.20;99.90;;;;;;5114908;28;20061;-60
2022/06/19 00:25:18;;;;;;;1999.90;999.90;;;15.20;99.90;;;;;;5114844;28;20126;-61
2022/06/19 00:27:44;;;;;;;1999.90;999.90;;;15.10;99.90;;;;;;5115790;28;20047;-60
2022/06/19 00:30:11;;;;;;;1999.90;999.90;;;15.00;99.90;;;;;;5115062;28;20050;-60
2022/06/19 00:32:37;;;;;;;1999.90;999.90;;;14.90;99.90;;;;;;5115216;28;20043;-61
2022/06/19 00:35:05;;;;;;;1999.90;999.90;;;14.80;99.90;;;;;;5114175;28;20046;-61
2022/06/19 00:37:31;;;;;;;1999.90;999.90;;;14.80;99.90;;;;;;5115697;28;20067;-61
2022/06/19 00:39:57;;;;;;;1999.90;999.90;;;14.80;99.90;;;;;;5114941;28;20058;-61
2022/06/19 00:42:24;;;;;;;1999.90;999.90;;;14.80;99.90;;;;;;5095917;28;20052;-61
2022/06/19 00:44:51;;;;;;;1999.90;999.90;;;14.80;99.90;;;;;;5114990;28;20094;-61
2022/06/19 00:47:24;;;;;;;1999.90;999.90;;;15.00;99.90;;;;;;5115062;28;20047;-61
2022/06/19 00:49:52;;;;;;;1999.90;999.90;;;15.00;99.90;;;;;;5114555;28;20481;-61
2022/06/19 00:52:29;;;;;;;1999.90;999.90;;;15.00;99.90;;;;;;5114879;28;20047;-61
2022/06/19 00:55:06;;;;;;;1999.90;999.90;;;15.00;99.90;;;;;;5114677;28;20042;-61
2022/06/19 00:57:44;;;;;;;1999.90;999.90;;;15.00;99.90;;;;;;5114393;28;20079;-61
2022/06/19 01:00:16;;;;;;;1999.90;999.90;;;15.00;99.90;;;;;;5114667;28;20051;-61
2022/06/19 01:02:44;;;;;;;1999.90;999.90;;;14.90;99.90;;;;;;5096190;28;20543;-61
2022/06/19 01:05:13;;;;;;;1999.90;999.90;;;14.90;99.90;;;;;;5114222;28;20134;-61
2022/06/19 01:07:40;;;;;;;1999.90;999.90;;;14.90;99.90;;;;;;5115074;28;20043;-60
2022/06/19 01:10:06;;;;;;;1999.90;999.90;;;14.90;99.90;;;;;;5113675;28;20051;-61
2022/06/19 01:12:32;;;;;;;1999.90;999.90;;;14.90;99.90;;;;;;5101653;28;20043;-61
2022/06/19 01:15:03;;;;;;;1999.90;999.90;;;15.00;99.90;;;;;;5094455;28;20490;-60
2022/06/19 01:17:32;;;;;;;1999.90;999.90;;;15.00;99.90;;;;;;5105855;28;20044;-61
2022/06/19 01:19:59;;;;;;;1999.90;999.90;;;15.00;99.90;;;;;;5114561;28;20036;-61
2022/06/19 01:22:52;;;;;;;1999.90;999.90;;;14.90;99.90;;;;;;5114600;28;20055;-60
2022/06/19 01:25:22;;;;;;;1999.90;999.90;;;15.00;99.90;;;;;;5094979;28;20052;-61
2022/06/19 01:30:39;;;;;;;1999.90;999.90;;;15.00;99.90;;;;;;5114563;28;20098;-60
2022/06/19 01:33:07;;;;;;;1999.90;999.90;;;15.10;99.90;;;;;;5094723;28;20039;-61
2022/06/19 01:35:35;;;;;;;1999.90;999.90;;;15.10;99.90;;;;;;5114089;28;20058;-61
2022/06/19 01:38:08;;;;;;;1999.90;999.90;;;15.10;99.90;;;;;;5114395;28;20079;-60
2022/06/19 01:40:35;;;;;;;1999.90;999.90;;;15.20;99.90;;;;;;5112794;28;20425;-61
2022/06/19 01:43:03;;;;;;;1999.90;999.90;;;15.30;99.90;;;;;;5114129;28;20063;-60
2022/06/19 01:45:29;;;;;;;1999.90;999.90;;;15.30;99.90;;;;;;5113560;28;20052;-61
2022/06/19 01:47:55;;;;;;;;;;;15.30;99.90;;;;;;5112510;28;20370;-61
2022/06/19 01:50:23;;;;;;;;;;;15.30;99.90;;;;;;5112984;28;20053;-61
2022/06/19 01:52:51;;;;;;;;;;;15.30;99.90;;;;;;5093774;28;19920;-60
2022/06/19 01:55:19;;;;;;;;;;;15.20;99.90;;;;;;5111728;28;19930;-60
2022/06/19 01:57:48;;;;;;;;;;;15.20;99.90;;;;;;5094022;28;19920;-60
2022/06/19 02:00:16;;;;;;;;;;;15.20;99.90;;;;;;5111786;28;19920;-61
2022/06/19 02:02:46;;;;;;;;;;;15.10;99.90;;;;;;5111614;28;19920;-60
2022/06/19 02:05:11;;;;;;;;;;;15.10;99.90;;;;;;5094402;28;19919;-61
2022/06/19 02:07:37;;;;;;;;;;;15.10;99.90;;;;;;5111814;28;20295;-60
2022/06/19 02:10:04;;;;;;;;;;;15.10;99.90;;;;;;5112242;28;19923;-60
2022/06/19 02:12:31;;;;;;;;;;;15.00;99.90;;;;;;5093913;28;19924;-60
2022/06/19 02:14:57;;;;;;;;;;;15.00;99.90;;;;;;5111797;28;19924;-60
2022/06/19 02:17:26;;;;;;;;;;;15.00;99.90;;;;;;5111710;28;19920;-61
2022/06/19 02:19:52;;;;;;;;;;;15.10;99.90;;;;;;5112298;28;19919;-61
2022/06/19 02:22:18;;;;;;;;;;;15.10;99.90;;;;;;5111538;28;19920;-60
2022/06/19 02:24:44;;;;;;;;;;;15.00;99.90;;;;;;5111519;28;19916;-60
2022/06/19 02:27:10;;;;;;;;;;;15.00;99.90;;;;;;5112288;28;20315;-60
2022/06/19 02:29:37;;;;;;;;;;;14.90;99.90;;;;;;5111103;28;19964;-61
2022/06/19 02:32:04;;;;;;;;;;;15.00;99.90;;;;;;5111645;28;19923;-60
2022/06/19 02:34:36;;;;;;;;;;;14.90;99.90;;;;;;5112162;28;20037;-60
2022/06/19 02:37:03;;;;;;;;;;;14.90;99.90;;;;;;5112291;28;20354;-60
2022/06/19 02:39:29;;;;;;;;;;;14.80;99.90;;;;;;5111217;28;20067;-60
2022/06/19 02:42:15;;;;;;;;;;;14.80;99.90;;;;;;5111162;28;19919;-60
2022/06/19 02:44:41;;;;;;;;;;;14.80;99.90;;;;;;5111836;28;19978;-60
2022/06/19 02:47:07;;;;;;;;;;;14.90;99.90;;;;;;5111316;28;19963;-60
2022/06/19 02:49:33;;;;;;;;;;;14.90;99.90;;;;;;5110244;28;20049;-60
2022/06/19 02:52:00;;;;;;;;;;;14.80;99.90;;;;;;5112190;28;20277;-60
2022/06/19 02:54:26;;;;;;;;;;;14.80;99.90;;;;;;5111504;28;19943;-60
2022/06/19 02:56:52;;;;;;;;;;;14.80;99.90;;;;;;5110798;28;19920;-60
2022/06/19 02:59:17;;;;;;;;;;;14.80;99.90;;;;;;5112052;28;20465;-60
2022/06/19 03:01:43;;;;;;;;;;;14.80;99.90;;;;;;5111592;28;20006;-61
2022/06/19 03:04:18;;;;;;;;;;;14.80;99.90;;;;;;5110920;28;19923;-60
2022/06/19 03:06:44;;;;;;;;;;;14.90;99.90;;;;;;5112101;28;20019;-60
2022/06/19 03:09:10;;;;;;;;;;;14.90;99.90;;;;;;5115713;28;19920;-60
2022/06/19 03:11:35;;;;;;;;;;;14.90;99.90;;;;;;5115217;28;19919;-60
2022/06/19 03:14:01;;;;;;;;;;;14.80;99.90;;;;;;5115765;28;19998;-60
2022/06/19 03:16:27;;;;;;;;;;;14.70;99.90;;;;;;5115423;28;20072;-60
2022/06/19 03:18:52;;;;;;;;;;;14.60;99.90;;;;;;5115213;28;19920;-60
2022/06/19 03:21:18;;;;;;;;;;;14.50;99.90;;;;;;5097101;28;19972;-60
2022/06/19 03:23:44;;;;;;;;;;;14.40;99.90;;;;;;5096355;28;20070;-60
2022/06/19 03:26:10;;;;;;;;;;;14.30;99.90;;;;;;5096949;28;19923;-60
2022/06/19 03:28:35;;;;;;;;;;;14.20;99.90;;;;;;5115829;28;19920;-60
2022/06/19 03:31:01;;;;;;;;;;;14.10;99.90;;;;;;5114038;28;19919;-60
2022/06/19 03:33:27;;;;;;;1999.90;999.90;;;14.10;99.90;;;;;;5098449;28;20003;-60
2022/06/19 03:35:53;;;;;;;1167.68;656.35;;;14.00;99.90;;;;;;5098388;28;20490;-60
2022/06/19 03:38:20;;;;;;;1999.90;999.90;;;14.00;99.90;;;;;;5115615;28;20431;-60
2022/06/19 03:40:46;;;;;;;1999.90;999.90;;;13.80;99.90;;;;;;5115955;28;20052;-60
2022/06/19 03:43:12;;;;;;;1999.90;999.90;;;13.70;99.90;;;;;;5116719;28;20047;-60
2022/06/19 03:45:38;;;;;;;1999.90;999.90;;;13.70;99.90;;;;;;5114859;28;20470;-60
2022/06/19 03:48:05;;;;;;;1999.90;999.90;;;13.70;99.90;;;;;;5116235;28;20047;-60
2022/06/19 03:50:31;;;;;;;1999.90;999.90;;;13.80;99.90;;;;;;5116297;28;20493;-60
2022/06/19 03:52:56;;;;;;;1999.90;999.90;;;13.70;99.90;;;;;;5115040;28;20058;-60
2022/06/19 03:55:22;;;;;;;1999.90;999.90;;;13.70;99.90;;;;;;5116317;28;20052;-60
2022/06/19 03:57:48;;;;;;;1999.90;999.90;;;13.70;99.90;;;;;;5116013;28;20048;-60
2022/06/19 04:00:17;;;;;;;1999.90;999.90;;;13.70;99.90;;;;;;5114906;28;20050;-60
2022/06/19 04:02:44;;;;;;;1999.90;999.90;;;13.80;99.90;;;;;;5116370;28;20494;-60
2022/06/19 04:05:11;;;;;;;1999.90;999.90;;;13.90;99.90;;;;;;5097625;28;20497;-60
2022/06/19 04:07:46;;;;;;;1999.90;999.90;;;13.90;99.90;;;;;;5114330;28;20130;-60
2022/06/19 04:10:13;;;;;;;1999.90;999.90;;;13.90;99.90;;;;;;5116264;28;20054;-60
2022/06/19 04:12:39;;;;;;;1999.90;999.90;;;13.80;99.90;;;;;;5116049;28;20044;-60
2022/06/19 04:15:05;;;;;;;1999.90;999.90;;;13.80;99.90;;;;;;5114323;28;20058;-60
2022/06/19 04:17:31;;;;;;;1999.90;999.90;;;13.70;99.90;;;;;;5115806;28;20102;-60
2022/06/19 04:19:57;;;;;;;1999.90;999.90;;;13.70;99.90;;;;;;5096903;28;20101;-60
2022/06/19 04:22:22;;;;;;;1999.90;999.90;;;13.70;99.90;;;;;;5114475;28;20047;-60
2022/06/19 04:24:48;;;;;;;737.42;473.85;;;13.80;99.90;;;;;;5115429;28;20127;-60
2022/06/19 04:27:15;;;;;;;1999.90;999.90;;;13.80;99.90;;;;;;5115005;28;20548;-60
2022/06/19 04:29:40;;;;;;;1999.90;999.90;;;13.80;99.90;;;;;;5115084;28;20496;-60
2022/06/19 04:32:06;;;;;;;1999.90;999.90;;;13.80;99.90;;;;;;5115596;28;20055;-59
2022/06/19 04:34:32;;;;;;;397.80;373.02;;;13.80;99.90;;;;;;5114388;28;20092;-60
2022/06/19 04:36:58;;;;;;;438.42;412.50;;;13.80;99.90;;;;;;5096612;28;20047;-60
2022/06/19 04:39:24;;;;;;;482.67;452.88;;;13.80;99.90;;;;;;5115404;28;20044;-60
2022/06/19 04:41:49;;;;;;;302.95;284.58;;;13.80;99.90;;;;;;5114066;28;20035;-60
2022/06/19 04:44:17;;;;;;;505.27;473.77;;;13.80;99.90;;;;;;5109479;28;20071;-60
2022/06/19 04:46:44;;;;;;;557.30;522.47;;;13.80;99.90;;;;;;5095128;28;20048;-60
2022/06/19 04:49:11;;;;;;;526.78;493.98;;;13.90;99.90;;;;;;5095369;28;20036;-60
2022/06/19 04:51:37;;;;;;;542.72;506.98;;;13.80;99.90;;;;;;5109196;28;20035;-59
2022/06/19 04:54:03;;;;;;;643.80;601.13;;;13.90;99.90;;;;;;5115404;28;20054;-60
2022/06/19 04:56:29;;;;;;;640.13;596.60;;;13.90;99.90;;;;;;5114541;28;20122;-60
2022/06/19 04:58:55;;;;;;;471.25;444.58;;;14.00;99.90;;;;;;5114363;28;20035;-60
2022/06/19 05:01:25;;;;;;;574.05;538.33;;;14.00;99.90;;;;;;5115140;28;20051;-60
2022/06/19 05:03:55;;;;;;;497.15;466.83;;;13.90;99.90;;;;;;5114300;28;20075;-60
2022/06/19 05:06:21;;;;;;;545.55;514.05;;;13.90;99.90;;;;;;5114507;28;20051;-60
2022/06/19 05:08:47;;;;;;;591.00;554.42;;;13.90;99.90;;;;;;5114636;28;20078;-60
2022/06/19 05:11:13;;;;;;;668.70;626.58;;;13.90;99.90;;;;;;5114254;28;20083;-60
2022/06/19 05:13:41;;;;;;;679.97;635.63;;;14.00;99.90;;;;;;5095947;28;20127;-60
2022/06/19 05:16:10;;;;;;;488.02;453.52;;;14.10;99.90;;;;;;5096562;28;20048;-60
2022/06/19 05:18:36;;;;;;;528.15;496.92;;;14.20;99.90;;;;;;5113741;28;20097;-60
2022/06/19 05:21:04;;;;;;;601.75;563.60;;;14.20;99.90;;;;;;5114226;28;20048;-60
2022/06/19 05:23:41;;;;;;;615.38;575.70;;;14.20;99.90;;;;;;5114013;28;20119;-60
2022/06/19 05:26:11;;;;;;;569.80;534.13;;;14.20;99.90;;;;;;5113974;28;20126;-60
2022/06/19 05:28:37;;;;;;;584.63;547.45;;;14.20;99.90;;;;;;5114127;28;20040;-60
2022/06/19 05:31:03;;;;;;;472.60;444.63;;;14.10;99.90;;;;;;5112525;28;20485;-60
2022/06/19 05:33:30;;;;;;;430.85;406.98;;;14.00;99.90;;;;;;5096165;28;20093;-60
2022/06/19 05:35:57;;;;;;;435.42;411.25;;;14.00;99.90;;;;;;5113423;28;20051;-60
2022/06/19 05:38:24;;;;;;;570.40;535.58;;;14.00;99.90;;;;;;5113821;28;20047;-60
2022/06/19 05:40:51;;;;;;;476.92;449.55;;;13.90;99.90;;;;;;5114020;28;20187;-60
2022/06/19 05:43:18;;;;;;;350.17;330.50;;;13.80;99.90;;;;;;5113254;28;20050;-60
2022/06/19 05:45:53;;;;;;;285.85;265.10;;;13.80;99.90;;;;;;5113143;28;20100;-60
2022/06/19 05:48:19;;;;;;;1999.90;999.90;;;13.80;99.90;;;;;;5114300;28;20047;-60
2022/06/19 05:50:55;;;;;;;1999.90;999.90;;;13.80;99.90;;;;;;5095252;28;20103;-60
2022/06/19 05:53:21;;;;;;;1999.90;999.90;;;13.80;99.90;;;;;;5094625;28;20059;-60
2022/06/19 05:55:47;;;;;;;1999.90;999.90;;;13.70;99.90;;;;;;5113823;28;20051;-60
2022/06/19 05:58:13;;;;;;;1999.90;999.90;;;13.70;99.90;;;;;;5113464;28;20039;-60
2022/06/19 06:00:38;;;;;;;1549.47;795.50;;;13.60;99.90;;;;;;5094475;28;20462;-60
2022/06/19 06:03:04;;;;;;;260.38;237.35;;;13.50;99.90;;;;;;5112224;28;20130;-60
2022/06/19 06:05:30;;;;;;;1567.00;811.55;;;13.50;99.90;;;;;;5112847;28;20040;-60
2022/06/19 06:07:56;;;;;;;1999.90;999.90;;;13.40;99.90;;;;;;5113742;28;20052;-60
2022/06/19 06:10:22;;;;;;;355.15;324.05;;;13.40;99.90;;;;;;5113311;28;20112;-60
2022/06/19 06:12:48;;;;;;;1539.65;785.38;;;13.40;99.90;;;;;;5112217;28;20047;-60
2022/06/19 06:15:13;;;;;;;1999.90;999.90;;;13.50;99.90;;;;;;5113736;28;20111;-60
2022/06/19 06:17:39;;;;;;;1999.90;999.90;;;13.50;99.90;;;;;;5113683;28;20573;-60
2022/06/19 06:20:05;;;;;;;1999.90;999.90;;;13.60;99.90;;;;;;5093008;28;20088;-60
2022/06/19 06:22:31;;;;;;;202.60;191.05;;;13.60;99.90;;;;;;5113003;28;20104;-60
2022/06/19 06:24:58;;;;;;;533.08;499.65;;;13.60;99.90;;;;;;5077804;28;20043;-60
2022/06/19 06:27:24;;;;;;;568.78;534.05;;;13.60;99.90;;;;;;5111890;28;20063;-60
2022/06/19 06:29:50;;;;;;;565.35;532.00;;;13.60;99.90;;;;;;5113487;28;20040;-60
2022/06/19 06:32:15;;;;;;;565.97;530.40;;;13.60;99.90;;;;;;5094695;28;20052;-60
2022/06/19 06:34:41;;;;;;;519.90;490.13;;;13.60;99.90;;;;;;5111477;28;20047;-60
2022/06/19 06:37:07;;;;;;;530.33;498.58;;;13.60;99.90;;;;;;5112107;28;20451;-60
2022/06/19 06:39:33;;;;;;;546.92;514.60;;;13.70;99.90;;;;;;5112236;28;20385;-60
2022/06/19 06:41:59;;;;;;;462.40;437.30;;;13.80;99.90;;;;;;5110641;28;20035;-60
2022/06/19 06:44:25;;;;;;;;;;;13.80;99.90;;;;;;5093462;28;20060;-60
2022/06/19 06:46:50;;;;;;;;;;;13.90;99.90;;;;;;5110983;28;19920;-60
2022/06/19 06:49:16;;;;;;;565.65;531.78;;;13.90;99.90;;;;;;5112046;28;20040;-60
2022/06/19 06:51:42;;;;;;;418.60;391.73;;;14.10;99.90;;;;;;5094954;28;20058;-60
2022/06/19 06:54:08;;;;;;;1577.72;821.90;;;14.10;99.90;;;;;;5094696;28;20051;-60
2022/06/19 06:56:34;;;;;;;;;;;14.30;99.90;;;;;;5110728;28;20123;-60
2022/06/19 06:59:01;;;;;;;;;;;14.40;99.90;;;;;;5111633;28;20056;-60
2022/06/19 07:01:27;;;;;;;;;;;14.50;99.90;;;;;;5111567;28;20357;-60
2022/06/19 07:03:55;;;;;;;;;;;14.60;99.90;;;;;;5091269;28;20026;-60
2022/06/19 07:06:22;;;;;;;;;;;14.60;99.90;;;;;;5110967;28;20436;-60
2022/06/19 07:08:48;;;;;;;;;;;14.60;99.90;;;;;;5111310;28;19972;-60
2022/06/19 07:11:14;;;;;;;;;;;14.70;99.90;;;;;;5109529;28;19919;-60
2022/06/19 07:13:40;;;;;;;;;;;14.70;99.90;;;;;;5090641;28;19920;-60
2022/06/19 07:16:06;;;;;;;;;;;14.70;99.90;;;;;;5110959;28;19927;-60
2022/06/19 07:18:32;;;;;;;;;;;14.70;99.90;;;;;;5111633;28;19927;-60
2022/06/19 07:20:57;;;;;;;;;;;14.80;99.90;;;;;;5110619;28;20308;-60
2022/06/19 07:23:23;;;;;;;;;;;14.70;99.90;;;;;;5092733;28;19920;-60
2022/06/19 07:25:48;;;;;;;;;;;14.70;99.90;;;;;;5111342;28;20067;-60
2022/06/19 07:28:15;;;;;;;;;;;14.60;99.90;;;;;;5110766;28;19973;-60
2022/06/19 07:30:42;;;;;;;;;;;14.60;99.90;;;;;;5109712;28;19920;-60
2022/06/19 07:33:08;;;;;;;;;;;14.50;99.90;;;;;;5110538;28;19987;-60
2022/06/19 07:35:33;;;;;;;;;;;14.50;99.90;;;;;;5111209;28;20362;-60
2022/06/19 07:37:59;;;;;;;;;;;14.40;99.90;;;;;;5110735;28;20032;-60
2022/06/19 07:40:26;;;;;;;;;;;14.40;99.90;;;;;;5110790;28;20346;-60
2022/06/19 07:42:52;;;;;;;;;;;14.40;99.90;;;;;;5110380;28;19928;-60
2022/06/19 07:45:17;;;;;;;;;;;14.50;99.90;;;;;;5109409;28;19928;-60
2022/06/19 07:50:27;;;;;;;;;;;14.70;99.90;;;;;;5110912;28;20285;-60
2022/06/19 07:52:53;;;;;;;;;;;14.80;99.90;;;;;;5092524;28;19923;-60
2022/06/19 07:55:21;;;;;;;;;;;14.90;99.90;;;;;;5113914;28;20418;-60
2022/06/19 07:57:47;;;;;;;;;;;14.90;99.90;;;;;;5095365;28;19927;-60
2022/06/19 08:00:16;;;;;;;;;;;15.00;99.90;;;;;;5113617;28;19966;-60
2022/06/19 08:02:44;;;;;;;;;;;15.00;99.90;;;;;;5114919;28;20087;-60
2022/06/19 08:05:12;;;;;;;;;;;15.00;99.90;;;;;;5112915;28;20385;-60
2022/06/19 08:07:38;;;;;;;;;;;15.10;99.90;;;;;;5106438;28;20068;-60
2022/06/19 08:10:04;;;;;;;;;;;15.10;99.90;;;;;;5110072;28;20289;-60
2022/06/19 08:12:30;;;;;;;;;;;15.20;99.90;;;;;;5113499;28;20358;-60
2022/06/19 08:14:55;;;;;;;;;;;15.20;99.90;;;;;;5113585;28;19920;-60
2022/06/19 08:17:22;;;;;;;;;;;15.10;99.90;;;;;;5096018;28;19926;-60
2022/06/19 08:19:47;;;;;;;;;;;15.10;99.90;;;;;;5112564;28;19923;-60
2022/06/19 08:22:13;;;;;;;;;;;15.10;99.90;;;;;;5114552;28;20380;-60
2022/06/19 08:24:39;;;;;;;;;;;15.00;99.90;;;;;;5113861;28;19919;-61
2022/06/19 08:27:05;;;;;;;;;;;14.90;99.90;;;;;;5102952;28;19920;-60
2022/06/19 08:29:31;;;;;;;;;;;14.90;99.90;;;;;;5114203;28;19920;-60
2022/06/19 08:31:57;;;;;;;;;;;14.90;99.90;;;;;;5113885;28;20426;-60
2022/06/19 08:34:23;;;;;;;;;;;14.80;99.90;;;;;;5112923;28;20060;-60
2022/06/19 08:36:49;;;;;;;;;;;14.80;99.90;;;;;;5113389;28;20369;-60
2022/06/19 08:39:16;;;;;;;;;;;14.80;99.90;;;;;;5114028;28;19920;-60
2022/06/19 08:41:51;;;;;;;;;;;14.80;99.90;;;;;;5111972;28;20497;-60
2022/06/19 08:44:18;;;;;;;;;;;14.80;99.90;;;;;;5113683;28;20059;-60
2022/06/19 08:46:50;;;;;;;;;;;14.80;99.90;;;;;;5094726;28;20419;-61
2022/06/19 08:49:35;;;;;;;;;;;14.90;99.90;;;;;;5112540;28;20185;-60
2022/06/19 08:52:07;;;;;;;;;;;15.00;99.90;;;;;;5113810;28;19923;-60
2022/06/19 08:54:45;;;;;;;;;;;15.00;99.90;;;;;;5112555;28;20060;-60
2022/06/19 08:57:18;;;;;;;;;;;15.00;99.90;;;;;;5109180;28;20091;-60
2022/06/19 08:59:55;;;;;;;;;;;15.10;99.90;;;;;;5110449;28;20071;-60
2022/06/19 09:02:37;;;;;;;;;;;15.20;99.90;;;;;;5112329;28;19919;-60
2022/06/19 09:08:04;;;;;;;;;;;15.60;99.90;;;;;;5113241;28;19927;-60
2022/06/19 09:10:29;;;;;;;;;;;16.00;99.90;;;;;;5109742;28;20449;-60
2022/06/19 09:12:58;;;;;;;;;;;16.20;99.90;;;;;;5112470;28;20014;-60
2022/06/19 09:15:31;;;;;;;;;;;16.30;99.90;;;;;;5112518;28;19923;-60
2022/06/19 09:18:02;;;;;;;;;;;16.40;99.90;;;;;;5108841;28;20362;-60
2022/06/19 09:20:28;;;;;;;;;;;16.40;99.90;;;;;;5112613;28;20056;-60
2022/06/19 09:23:13;;;;;;;;;;;16.40;99.90;;;;;;5112622;28;19931;-61
2022/06/19 09:25:44;;;;;;;;;;;16.30;99.90;;;;;;5103812;28;19971;-61
2022/06/19 09:28:18;;;;;;;;;;;16.30;99.90;;;;;;5113237;28;20322;-60
2022/06/19 09:30:47;;;;;;;;;;;16.40;99.90;;;;;;5112580;28;19924;-61
2022/06/19 09:33:20;;;;;;;;;;;16.60;99.90;;;;;;5112599;28;19920;-61
2022/06/19 09:35:51;;;;;;;;;;;16.70;99.90;;;;;;5112958;28;20281;-61
2022/06/19 09:38:24;;;;;;;;;;;16.60;99.90;;;;;;5094050;28;19976;-60
2022/06/19 09:40:53;;;;;;;;;;;16.40;99.90;;;;;;5112179;28;20429;-60
2022/06/19 09:43:34;;;;;;;;;;;16.20;99.90;;;;;;5112507;28;19923;-61
2022/06/19 09:46:02;;;;;;;;;;;16.10;99.90;;;;;;5112523;28;19981;-61
2022/06/19 09:48:28;;;;;;;;;;;16.10;99.90;;;;;;5112184;28;20353;-61
2022/06/19 09:51:01;;;;;;;;;;;16.10;99.90;;;;;;5093497;28;19930;-61
2022/06/19 09:53:27;;;;;;;;;;;16.00;99.90;;;;;;5113073;28;19920;-60
2022/06/19 09:55:58;;;;;;;;;;;16.00;99.90;;;;;;5112300;28;19919;-60
2022/06/19 09:58:34;;;;;;;;;;;16.00;99.90;;;;;;5102109;28;19999;-61
2022/06/19 10:01:00;;;;;;;;;;;16.10;99.90;;;;;;5111382;28;20270;-60
2022/06/19 10:03:28;;;;;;;;;;;16.20;99.90;;;;;;5111207;28;19934;-61
2022/06/19 10:05:56;;;;;;;;;;;16.30;99.90;;;;;;5110965;28;19988;-60
2022/06/19 10:08:23;;;;;;;;;;;16.30;99.90;;;;;;5112120;28;19923;-60
2022/06/19 10:10:52;;;;;;;;;;;16.30;99.90;;;;;;5111135;28;19920;-61
2022/06/19 10:13:22;;;;;;;;;;;16.40;99.90;;;;;;5110555;28;19924;-60
2022/06/19 10:15:49;;;;;;;;;;;16.50;99.90;;;;;;5111518;28;19927;-61
2022/06/19 10:18:14;;;;;;;;;;;16.60;99.90;;;;;;5110212;28;19974;-61
2022/06/19 10:20:50;;;;;;;;;;;16.90;99.90;;;;;;5107376;28;19951;-61
2022/06/19 10:23:24;;;;;;;;;;;17.10;99.90;;;;;;5084370;28;20341;-61
2022/06/19 10:25:50;;;;;;;;;;;17.10;99.90;;;;;;5109600;28;19923;-61
2022/06/19 10:28:22;;;;;;;;;;;17.10;99.90;;;;;;5112203;28;19920;-61
2022/06/19 10:30:48;;;;;;;;;;;17.00;99.90;;;;;;5093040;28;19927;-61
2022/06/19 10:33:14;;;;;;;;;;;16.90;99.90;;;;;;5096980;28;20072;-61
2022/06/19 10:35:39;;;;;;;;;;;16.70;99.90;;;;;;5112250;28;19916;-61
2022/06/19 10:38:11;;;;;;;;;;;16.60;99.90;;;;;;5093973;28;19919;-61
2022/06/19 10:40:51;;;;;;;;;;;16.40;99.90;;;;;;5110511;28;20370;-61
2022/06/19 10:43:22;;;;;;;;;;;16.40;99.90;;;;;;5111660;28;19926;-61
2022/06/19 10:45:50;;;;;;;;;;;16.40;99.90;;;;;;5112055;28;19924;-61
2022/06/19 10:48:23;;;;;;;;;;;16.50;99.90;;;;;;5092537;28;19920;-61
2022/06/19 10:50:55;;;;;;;;;;;16.70;99.90;;;;;;5111923;28;20460;-61
2022/06/19 10:53:36;;;;;;;;;;;16.80;99.90;;;;;;5111637;28;20144;-61
2022/06/19 10:56:09;;;;;;;;;;;16.90;99.90;;;;;;5110699;28;20125;-61
2022/06/19 10:58:35;;;;;;;;;;;16.90;99.90;;;;;;5111877;28;19927;-60
2022/06/19 11:01:03;;;;;;;;;;;16.90;99.90;;;;;;5110084;28;20438;-61
2022/06/19 11:06:29;;;;;;;;;;;16.90;99.90;;;;;;5104787;28;19994;-60
2022/06/19 11:08:57;;;;;;;;;;;16.90;99.90;;;;;;5090489;28;19920;-60
2022/06/19 11:11:23;;;;;;;;;;;17.00;99.90;;;;;;5091705;28;20007;-60
2022/06/19 11:13:56;;;;;;;;;;;17.00;99.90;;;;;;5096719;28;19920;-60
2022/06/19 11:16:21;;;;;;;;;;;17.00;99.90;;;;;;5092309;28;19927;-60
2022/06/19 11:18:49;;;;;;;;;;;17.20;99.90;;;;;;5111507;28;20060;-60
2022/06/19 11:21:17;;;;;;;;;;;17.30;99.90;;;;;;5111856;28;19919;-60
2022/06/19 11:23:46;;;;;;;;;;;17.40;99.90;;;;;;5110711;28;19979;-60
2022/06/19 11:26:16;;;;;;;;;;;17.50;99.90;;;;;;5111467;28;20407;-60
2022/06/19 11:28:47;;;;;;;;;;;17.40;99.90;;;;;;5111881;28;20007;-60
2022/06/19 11:31:17;;;;;;;;;;;17.40;99.90;;;;;;5114188;28;20301;-60
2022/06/19 11:33:43;;;;;;;;;;;17.30;99.90;;;;;;5115680;28;19923;-60
2022/06/19 11:36:22;;;;;;;;;;;17.20;99.90;;;;;;5096459;28;19940;-60
2022/06/19 11:38:50;;;;;;;;;;;17.10;99.90;;;;;;5095144;28;19926;-60
2022/06/19 11:41:20;;;;;;;;;;;16.90;99.90;;;;;;5094913;28;19920;-60
2022/06/19 11:43:45;;;;;;;;;;;16.80;99.90;;;;;;5094541;28;19927;-60
2022/06/19 11:46:16;;;;;;;;;;;16.60;99.90;;;;;;5094497;28;20354;-60
2022/06/19 11:48:42;;;;;;;;;;;16.30;99.90;;;;;;5095237;28;19971;-60
2022/06/19 11:51:16;;;;;;;;;;;16.10;99.90;;;;;;5094372;28;19951;-60
2022/06/19 11:53:43;;;;;;;;;;;16.00;99.90;;;;;;5094336;28;19920;-60
2022/06/19 11:56:27;;;;;;;;;;;15.90;99.90;;;;;;5094795;28;19920;-60
2022/06/19 11:58:53;;;;;;;;;;;15.80;99.90;;;;;;5094496;28;19923;-60
2022/06/19 12:01:21;;;;;;;;;;;15.70;99.90;;;;;;5094116;28;19916;-60
2022/06/19 12:03:49;;;;;;;;;;;15.60;99.90;;;;;;5098767;28;20005;-60
2022/06/19 12:06:17;;;;;;;;;;;15.50;99.90;;;;;;5114255;28;19920;-60
2022/06/19 12:08:51;;;;;;;;;;;15.50;99.90;;;;;;5114670;28;20366;-60
2022/06/19 12:11:33;;;;;;;;;;;15.50;99.90;;;;;;5114028;28;19951;-60
2022/06/19 12:13:58;;;;;;;;;;;15.40;99.90;;;;;;5115062;28;19973;-60
2022/06/19 12:16:24;;;;;;;;;;;15.50;99.90;;;;;;5114284;28;20020;-60
2022/06/19 12:18:50;;;;;;;;;;;15.50;99.90;;;;;;5113712;28;19942;-60
2022/06/19 12:21:16;;;;;;;;;;;15.50;99.90;;;;;;5114440;28;20392;-60
2022/06/19 12:23:49;;;;;;;;;;;15.60;99.90;;;;;;5113665;28;19920;-60
2022/06/19 12:26:19;;;;;;;;;;;15.60;99.90;;;;;;5114056;28;19927;-60
2022/06/19 12:28:50;;;;;;;;;;;15.70;99.90;;;;;;5114570;28;20052;-60
2022/06/19 12:31:15;;;;;;;;;;;15.70;99.90;;;;;;5110995;28;20000;-60
2022/06/19 12:33:42;;;;;;;;;;;15.80;99.90;;;;;;5112672;28;19920;-60
2022/06/19 12:36:19;;;;;;;;;;;15.80;99.90;;;;;;5114427;28;20002;-60
2022/06/19 12:38:45;;;;;;;;;;;15.80;99.90;;;;;;5114106;28;19923;-60
2022/06/19 12:41:20;;;;;;;;;;;15.80;99.90;;;;;;5090516;28;19955;-60
2022/06/19 12:44:05;;;;;;;;;;;15.90;99.90;;;;;;5093626;28;20385;-60
2022/06/19 12:46:38;;;;;;;;;;;16.00;99.90;;;;;;5089549;28;19920;-60
2022/06/19 12:49:15;;;;;;;;;;;16.10;99.90;;;;;;5093626;28;19985;-60
2022/06/19 12:51:47;;;;;;;;;;;16.20;99.90;;;;;;5093013;28;21186;-60
2022/06/19 12:54:24;;;;;;;;;;;16.20;99.90;;;;;;5090038;28;20361;-60
2022/06/19 12:57:01;;;;;;;;;;;16.30;99.90;;;;;;5089475;28;19924;-60
2022/06/19 12:59:28;;;;;;;;;;;16.30;99.90;;;;;;5089971;28;20374;-60
2022/06/19 13:01:54;;;;;;;;;;;16.30;99.90;;;;;;5074318;28;19924;-60
2022/06/19 13:04:23;;;;;;;;;;;16.30;99.90;;;;;;5093319;28;19920;-60
2022/06/19 13:06:56;;;;;;;;;;;16.30;99.90;;;;;;5088928;28;19920;-60
2022/06/19 13:09:35;;;;;;;;;;;16.20;99.90;;;;;;5084985;28;19927;-60
2022/06/19 13:12:01;;;;;;;;;;;16.20;99.90;;;;;;5093267;28;19963;-60
2022/06/19 13:14:27;;;;;;;;;;;16.30;99.90;;;;;;5092408;28;20001;-60
2022/06/19 13:17:00;;;;;;;;;;;16.40;99.90;;;;;;5078266;28;19978;-60
2022/06/19 13:19:28;;;;;;;;;;;16.40;99.90;;;;;;5085940;28;19927;-60
2022/06/19 13:22:04;;;;;;;;;;;16.50;99.90;;;;;;5070811;28;21081;-60
2022/06/19 13:24:37;;;;;;;;;;;16.40;99.90;;;;;;5074025;28;19920;-60
2022/06/19 13:27:10;;;;;;;;;;;16.30;99.90;;;;;;5092335;28;19920;-60
2022/06/19 13:29:46;;;;;;;;;;;16.20;99.90;;;;;;5091756;28;19920;-60
2022/06/19 13:32:32;;;;;;;;;;;16.10;99.90;;;;;;5092487;28;20274;-60
2022/06/19 13:35:04;;;;;;;;;;;16.00;99.90;;;;;;5081223;28;19924;-60
2022/06/19 13:37:42;;;;;;;;;;;16.00;99.90;;;;;;5091338;28;19920;-60